createdAt,value
2018-07-23T00:00:12.438Z,95.26
2018-07-23T00:01:12.319Z,95.17
2018-07-23T00:02:12.229Z,94.98
2018-07-23T00:03:12.141Z,95.84
2018-07-23T00:04:12.059Z,94.79
2018-07-23T00:05:11.993Z,94.21
2018-07-23T00:06:11.875Z,93.44
2018-07-23T00:07:11.784Z,93.93
2018-07-23T00:08:11.697Z,93.73
2018-07-23T00:09:11.609Z,94.31
2018-07-23T00:10:11.549Z,94.21
2018-07-23T00:11:11.432Z,93.88
2018-07-23T00:12:11.343Z,93.88
2018-07-23T00:13:11.252Z,93.73
2018-07-23T00:14:11.165Z,92.44
2018-07-23T00:15:11.104Z,94.17
2018-07-23T00:16:10.991Z,93.40
2018-07-23T00:17:10.900Z,93.54
2018-07-23T00:18:10.807Z,94.50
2018-07-23T00:19:10.721Z,94.21
2018-07-23T00:20:10.662Z,93.73
2018-07-23T00:21:10.546Z,93.26
2018-07-23T00:22:10.457Z,93.16
2018-07-23T00:23:10.365Z,93.83
2018-07-23T00:24:10.278Z,93.44
2018-07-23T00:25:10.219Z,93.26
2018-07-23T00:26:10.101Z,93.35
2018-07-23T00:27:10.013Z,92.49
2018-07-23T00:28:09.923Z,92.20
2018-07-23T00:29:09.836Z,91.53
2018-07-23T00:30:09.772Z,91.72
2018-07-23T00:31:09.655Z,91.24
2018-07-23T00:32:09.573Z,90.47
2018-07-23T00:33:09.477Z,90.76
2018-07-23T00:34:09.394Z,90.86
2018-07-23T00:35:09.332Z,89.51
2018-07-23T00:36:09.214Z,90.47
2018-07-23T00:37:09.124Z,89.71
2018-07-23T00:38:09.034Z,88.94
2018-07-23T00:39:08.945Z,88.65
2018-07-23T00:40:08.886Z,87.70
2018-07-23T00:41:08.767Z,88.08
2018-07-23T00:42:08.679Z,87.21
2018-07-23T00:43:08.596Z,87.41
2018-07-23T00:44:08.500Z,87.41
2018-07-23T00:45:08.541Z,86.88
2018-07-23T00:46:08.324Z,86.69
2018-07-23T00:47:08.237Z,87.02
2018-07-23T00:48:08.145Z,86.02
2018-07-23T00:49:08.058Z,85.93
2018-07-23T00:50:07.999Z,85.25
2018-07-23T00:51:07.880Z,85.93
2018-07-23T00:52:07.890Z,85.35
2018-07-23T00:53:07.702Z,84.88
2018-07-23T00:54:07.613Z,83.72
2018-07-23T00:55:07.555Z,83.72
2018-07-23T00:56:07.433Z,82.86
2018-07-23T00:57:07.347Z,82.48
2018-07-23T00:58:07.254Z,80.76
2018-07-23T00:59:07.263Z,79.99
2018-07-23T01:00:07.110Z,78.99
2018-07-23T01:01:06.988Z,78.61
2018-07-23T01:02:06.898Z,78.42
2018-07-23T01:03:06.812Z,77.75
2018-07-23T01:04:06.724Z,77.55
2018-07-23T01:05:06.665Z,77.84
2018-07-23T01:06:06.639Z,77.55
2018-07-23T01:07:06.453Z,76.98
2018-07-23T01:08:06.364Z,76.98
2018-07-23T01:09:06.282Z,76.89
2018-07-23T01:10:06.216Z,76.69
2018-07-23T01:11:06.096Z,76.79
2018-07-23T01:12:06.012Z,75.64
2018-07-23T01:13:06.019Z,75.54
2018-07-23T01:14:05.831Z,75.26
2018-07-23T01:15:05.771Z,74.58
2018-07-23T01:16:05.652Z,74.40
2018-07-23T01:17:05.570Z,73.34
2018-07-23T01:18:05.473Z,73.24
2018-07-23T01:19:05.385Z,72.09
2018-07-23T01:20:05.427Z,71.42
2018-07-23T01:21:05.207Z,70.66
2018-07-23T01:22:05.116Z,69.99
2018-07-23T01:23:05.033Z,69.60
2018-07-23T01:24:04.937Z,69.03
2018-07-23T01:25:04.890Z,67.88
2018-07-23T01:26:04.759Z,67.21
2018-07-23T01:27:04.767Z,66.83
2018-07-23T01:28:04.582Z,65.58
2018-07-23T01:29:04.494Z,65.58
2018-07-23T01:30:04.432Z,65.11
2018-07-23T01:31:04.314Z,64.72
2018-07-23T01:32:04.224Z,63.86
2018-07-23T01:33:04.135Z,63.96
2018-07-23T01:34:04.138Z,63.64
2018-07-23T01:35:03.958Z,63.45
2018-07-23T01:36:03.894Z,63.73
2018-07-23T01:37:03.781Z,63.06
2018-07-23T01:38:03.686Z,63.06
2018-07-23T01:39:03.599Z,62.68
2018-07-23T01:40:03.508Z,62.49
2018-07-23T01:41:03.548Z,61.91
2018-07-23T01:42:03.329Z,61.34
2018-07-23T01:43:03.237Z,60.77
2018-07-23T01:44:03.153Z,60.77
2018-07-23T01:45:03.066Z,60.10
2018-07-23T01:46:03.017Z,59.52
2018-07-23T01:47:02.881Z,59.43
2018-07-23T01:48:02.913Z,58.95
2018-07-23T01:49:02.703Z,59.14
2018-07-23T01:50:02.614Z,58.95
2018-07-23T01:51:02.555Z,59.14
2018-07-23T01:52:02.433Z,58.66
2018-07-23T01:53:02.342Z,59.52
2018-07-23T01:54:02.256Z,58.47
2018-07-23T01:55:02.258Z,58.86
2018-07-23T01:56:02.106Z,58.66
2018-07-23T01:57:01.986Z,58.37
2018-07-23T01:58:01.896Z,58.95
2018-07-23T01:59:01.807Z,59.14
2018-07-23T02:00:01.723Z,58.56
2018-07-23T02:01:01.660Z,58.09
2018-07-23T02:02:01.636Z,58.76
2018-07-23T02:03:01.451Z,58.47
2018-07-23T02:04:01.359Z,58.95
2018-07-23T02:05:01.270Z,58.56
2018-07-23T02:06:01.212Z,58.76
2018-07-23T02:07:01.093Z,58.95
2018-07-23T02:08:01.006Z,58.47
2018-07-23T02:09:01.005Z,58.76
2018-07-23T02:10:00.823Z,58.47
2018-07-23T02:11:00.761Z,58.86
2018-07-23T02:12:00.642Z,58.56
2018-07-23T02:13:00.553Z,58.47
2018-07-23T02:14:00.461Z,58.09
2018-07-23T02:15:00.377Z,58.09
2018-07-23T02:16:00.312Z,57.99
2018-07-23T02:17:01.029Z,57.51
2018-07-23T02:18:00.105Z,57.80
2018-07-23T02:19:00.014Z,57.70
2018-07-23T02:19:59.924Z,57.99
2018-07-23T02:20:59.867Z,57.51
2018-07-23T02:21:59.746Z,57.04
2018-07-23T02:22:59.655Z,57.32
2018-07-23T02:23:59.570Z,57.23
2018-07-23T02:24:59.475Z,57.32
2018-07-23T02:25:59.418Z,56.94
2018-07-23T02:26:59.299Z,56.94
2018-07-23T02:27:59.210Z,57.04
2018-07-23T02:28:59.215Z,56.94
2018-07-23T02:29:59.028Z,57.04
2018-07-23T02:30:58.970Z,57.32
2018-07-23T02:31:58.860Z,56.94
2018-07-23T02:32:58.760Z,56.84
2018-07-23T02:33:58.669Z,56.84
2018-07-23T02:34:58.584Z,57.04
2018-07-23T02:35:58.523Z,57.04
2018-07-23T02:36:58.402Z,57.04
2018-07-23T02:37:58.322Z,56.94
2018-07-23T02:38:58.221Z,57.23
2018-07-23T02:39:58.135Z,57.23
2018-07-23T02:40:58.074Z,57.04
2018-07-23T02:41:57.949Z,56.84
2018-07-23T02:42:57.862Z,57.23
2018-07-23T02:43:57.773Z,57.13
2018-07-23T02:44:57.684Z,56.94
2018-07-23T02:45:57.630Z,57.04
2018-07-23T02:46:57.508Z,56.84
2018-07-23T02:47:57.417Z,56.94
2018-07-23T02:48:57.326Z,56.94
2018-07-23T02:49:57.236Z,58.37
2018-07-23T02:50:57.178Z,58.95
2018-07-23T02:51:57.054Z,59.11
2018-07-23T02:52:56.969Z,58.63
2018-07-23T02:53:56.876Z,57.77
2018-07-23T02:54:56.785Z,57.01
2018-07-23T02:55:56.730Z,56.91
2018-07-23T02:56:56.609Z,57.10
2018-07-23T02:57:56.518Z,57.01
2018-07-23T02:58:56.425Z,56.82
2018-07-23T02:59:56.342Z,56.62
2018-07-23T03:00:56.280Z,55.96
2018-07-23T03:01:56.158Z,55.47
2018-07-23T03:02:56.068Z,55.29
2018-07-23T03:03:55.979Z,55.29
2018-07-23T03:04:55.888Z,55.10
2018-07-23T03:05:55.829Z,55.19
2018-07-23T03:06:55.710Z,54.52
2018-07-23T03:07:55.620Z,54.33
2018-07-23T03:08:55.529Z,53.66
2018-07-23T03:09:55.440Z,52.99
2018-07-23T03:10:55.352Z,52.42
2018-07-23T03:11:55.295Z,51.84
2018-07-23T03:12:55.170Z,52.22
2018-07-23T03:13:55.081Z,51.75
2018-07-23T03:14:54.992Z,50.98
2018-07-23T03:15:54.902Z,51.46
2018-07-23T03:16:54.843Z,51.10
2018-07-23T03:17:54.727Z,51.20
2018-07-23T03:18:54.631Z,50.91
2018-07-23T03:19:54.557Z,50.81
2018-07-23T03:20:54.451Z,50.91
2018-07-23T03:21:54.544Z,51.39
2018-07-23T03:22:54.272Z,51.20
2018-07-23T03:23:54.187Z,51.77
2018-07-23T03:24:54.094Z,52.25
2018-07-23T03:25:54.003Z,51.77
2018-07-23T03:26:53.944Z,52.15
2018-07-23T03:27:53.824Z,52.15
2018-07-23T03:28:53.734Z,52.54
2018-07-23T03:29:53.644Z,52.06
2018-07-23T03:30:53.568Z,52.34
2018-07-23T03:31:53.494Z,52.54
2018-07-23T03:32:53.375Z,51.87
2018-07-23T03:33:53.282Z,52.63
2018-07-23T03:34:53.194Z,52.54
2018-07-23T03:35:53.105Z,52.44
2018-07-23T03:36:53.046Z,52.63
2018-07-23T03:37:52.925Z,52.44
2018-07-23T03:38:52.838Z,52.15
2018-07-23T03:39:52.747Z,52.25
2018-07-23T03:40:52.657Z,51.97
2018-07-23T03:41:52.616Z,52.06
2018-07-23T03:42:52.477Z,52.25
2018-07-23T03:43:52.386Z,52.25
2018-07-23T03:44:52.297Z,52.54
2018-07-23T03:45:52.303Z,52.15
2018-07-23T03:46:52.150Z,52.25
2018-07-23T03:47:52.029Z,52.44
2018-07-23T03:48:51.941Z,52.54
2018-07-23T03:49:51.849Z,52.44
2018-07-23T03:50:51.758Z,52.54
2018-07-23T03:51:51.704Z,52.15
2018-07-23T03:52:51.694Z,52.83
2018-07-23T03:53:51.490Z,52.92
2018-07-23T03:54:51.402Z,52.54
2018-07-23T03:55:51.311Z,53.40
2018-07-23T03:56:51.251Z,53.78
2018-07-23T03:57:51.129Z,54.36
2018-07-23T03:58:51.043Z,53.88
2018-07-23T03:59:51.048Z,53.69
2018-07-23T04:00:50.861Z,53.69
2018-07-23T04:01:50.802Z,54.07
2018-07-23T04:02:50.683Z,53.49
2018-07-23T04:03:50.592Z,54.07
2018-07-23T04:04:50.504Z,54.16
2018-07-23T04:05:50.408Z,54.45
2018-07-23T04:06:50.450Z,54.16
2018-07-23T04:07:50.232Z,54.16
2018-07-23T04:08:50.145Z,54.07
2018-07-23T04:09:50.051Z,53.97
2018-07-23T04:10:50.029Z,54.74
2018-07-23T04:11:49.907Z,54.26
2018-07-23T04:12:49.783Z,55.02
2018-07-23T04:13:49.791Z,55.79
2018-07-23T04:14:49.607Z,56.17
2018-07-23T04:15:49.518Z,56.65
2018-07-23T04:16:49.460Z,56.75
2018-07-23T04:17:49.333Z,56.84
2018-07-23T04:18:49.247Z,56.75
2018-07-23T04:19:49.156Z,56.46
2018-07-23T04:20:49.158Z,56.84
2018-07-23T04:21:49.006Z,56.84
2018-07-23T04:22:48.898Z,56.65
2018-07-23T04:23:48.799Z,57.13
2018-07-23T04:24:48.711Z,57.23
2018-07-23T04:25:48.616Z,57.23
2018-07-23T04:26:48.557Z,57.32
2018-07-23T04:27:48.537Z,58.09
2018-07-23T04:28:48.348Z,57.80
2018-07-23T04:29:48.257Z,57.99
2018-07-23T04:30:48.167Z,58.56
2018-07-23T04:31:48.082Z,58.28
2018-07-23T04:32:48.025Z,58.40
2018-07-23T04:33:47.901Z,59.27
2018-07-23T04:34:47.919Z,59.75
2018-07-23T04:35:47.722Z,60.32
2018-07-23T04:36:47.631Z,60.51
2018-07-23T04:37:47.572Z,61.08
2018-07-23T04:38:47.455Z,61.57
2018-07-23T04:39:47.367Z,62.62
2018-07-23T04:40:47.274Z,63.10
2018-07-23T04:41:47.285Z,63.76
2018-07-23T04:42:47.127Z,63.39
2018-07-23T04:43:47.001Z,63.67
2018-07-23T04:44:46.932Z,63.86
2018-07-23T04:45:46.827Z,63.99
2018-07-23T04:46:46.738Z,63.39
2018-07-23T04:47:46.677Z,64.37
2018-07-23T04:48:46.658Z,64.66
2018-07-23T04:49:46.469Z,64.95
2018-07-23T04:50:46.379Z,65.71
2018-07-23T04:51:46.289Z,65.71
2018-07-23T04:52:46.233Z,65.62
2018-07-23T04:53:46.168Z,66.09
2018-07-23T04:54:46.024Z,66.67
2018-07-23T04:55:46.059Z,67.34
2018-07-23T04:56:45.884Z,67.25
2018-07-23T04:57:45.785Z,67.05
2018-07-23T04:58:45.664Z,67.25
2018-07-23T04:59:45.575Z,67.25
2018-07-23T05:00:45.490Z,66.80
2018-07-23T05:01:45.396Z,66.99
2018-07-23T05:02:45.433Z,66.77
2018-07-23T05:03:45.219Z,67.57
2018-07-23T05:04:45.132Z,67.57
2018-07-23T05:05:45.065Z,67.95
2018-07-23T05:06:44.954Z,68.62
2018-07-23T05:07:44.896Z,68.81
2018-07-23T05:08:44.839Z,69.39
2018-07-23T05:09:44.779Z,70.64
2018-07-23T05:10:44.595Z,70.15
2018-07-23T05:11:44.505Z,71.98
2018-07-23T05:12:44.449Z,71.21
2018-07-23T05:13:44.330Z,72.88
2018-07-23T05:14:44.241Z,74.51
2018-07-23T05:15:44.154Z,74.79
2018-07-23T05:16:44.067Z,75.71
2018-07-23T05:17:44.007Z,76.52
2018-07-23T05:18:43.888Z,76.23
2018-07-23T05:19:43.799Z,76.32
2018-07-23T05:20:43.710Z,76.52
2018-07-23T05:21:43.623Z,76.71
2018-07-23T05:22:43.561Z,76.52
2018-07-23T05:23:43.448Z,77.09
2018-07-23T05:24:43.357Z,76.32
2018-07-23T05:25:43.266Z,76.71
2018-07-23T05:26:43.177Z,75.95
2018-07-23T05:27:43.122Z,76.42
2018-07-23T05:28:43.001Z,76.17
2018-07-23T05:29:42.916Z,76.46
2018-07-23T05:30:42.827Z,76.65
2018-07-23T05:31:42.764Z,76.65
2018-07-23T05:32:42.650Z,77.13
2018-07-23T05:33:42.589Z,77.23
2018-07-23T05:34:42.471Z,77.23
2018-07-23T05:35:42.381Z,77.04
2018-07-23T05:36:42.294Z,77.90
2018-07-23T05:37:42.235Z,79.91
2018-07-23T05:38:42.119Z,82.21
2018-07-23T05:39:42.028Z,84.81
2018-07-23T05:40:41.943Z,86.82
2018-07-23T05:41:41.855Z,86.63
2018-07-23T05:42:41.767Z,87.40
2018-07-23T05:43:41.713Z,87.21
2018-07-23T05:44:41.591Z,87.49
2018-07-23T05:45:41.500Z,87.59
2018-07-23T05:46:41.411Z,87.59
2018-07-23T05:47:41.330Z,87.59
2018-07-23T05:48:41.267Z,90.75
2018-07-23T05:49:41.179Z,92.63
2018-07-23T05:50:41.061Z,92.63
2018-07-23T05:51:40.974Z,92.43
2018-07-23T05:52:40.886Z,93.10
2018-07-23T05:53:40.827Z,92.91
2018-07-23T05:54:40.708Z,93.97
2018-07-23T05:55:40.619Z,95.89
2018-07-23T05:56:40.532Z,96.18
2018-07-23T05:57:40.445Z,95.60
2018-07-23T05:58:40.387Z,96.18
2018-07-23T05:59:40.268Z,96.08
2018-07-23T06:00:40.177Z,95.98
2018-07-23T06:01:40.094Z,98.58
2018-07-23T06:02:40.003Z,98.86
2018-07-23T06:03:40.000Z,99.49
2018-07-23T06:04:39.832Z,99.05
2018-07-23T06:05:39.738Z,99.49
2018-07-23T06:06:39.692Z,99.10
2018-07-23T06:07:39.564Z,99.99
2018-07-23T06:08:39.510Z,99.97
2018-07-23T06:09:39.386Z,99.99
2018-07-23T06:10:39.301Z,99.97
2018-07-23T06:11:39.210Z,99.99
2018-07-23T06:12:39.165Z,99.87
2018-07-23T06:13:39.068Z,99.99
2018-07-23T06:14:38.950Z,99.99
2018-07-23T06:15:38.863Z,99.99
2018-07-23T06:16:38.772Z,99.99
2018-07-23T06:17:38.685Z,99.99
2018-07-23T06:18:38.628Z,99.99
2018-07-23T06:19:38.514Z,99.99
2018-07-23T06:20:38.422Z,99.99
2018-07-23T06:21:38.334Z,99.99
2018-07-23T06:22:38.250Z,99.99
2018-07-23T06:23:38.192Z,99.99
2018-07-23T06:24:38.071Z,99.99
2018-07-23T06:25:37.986Z,99.99
2018-07-23T06:26:37.897Z,99.99
2018-07-23T06:27:37.811Z,99.99
2018-07-23T06:28:37.757Z,99.99
2018-07-23T06:29:37.638Z,99.99
2018-07-23T06:30:37.550Z,99.99
2018-07-23T06:31:37.461Z,99.99
2018-07-23T06:32:37.374Z,99.99
2018-07-23T06:33:37.321Z,99.99
2018-07-23T06:34:37.200Z,99.99
2018-07-23T06:35:37.114Z,99.99
2018-07-23T06:36:37.026Z,99.99
2018-07-23T06:37:36.999Z,99.99
2018-07-23T06:38:36.878Z,99.99
2018-07-23T06:39:36.766Z,99.99
2018-07-23T06:40:36.677Z,99.99
2018-07-23T06:41:36.589Z,99.99
2018-07-23T06:42:36.502Z,99.99
2018-07-23T06:43:36.448Z,99.99
2018-07-23T06:44:36.331Z,99.99
2018-07-23T06:45:36.242Z,99.99
2018-07-23T06:46:36.172Z,99.99
2018-07-23T06:47:36.071Z,99.99
2018-07-23T06:48:36.015Z,99.99
2018-07-23T06:49:35.896Z,99.99
2018-07-23T06:50:35.813Z,99.99
2018-07-23T06:51:35.724Z,99.99
2018-07-23T06:52:35.647Z,99.99
2018-07-23T06:53:35.585Z,99.99
2018-07-23T06:54:35.465Z,99.99
2018-07-23T06:55:35.383Z,99.99
2018-07-23T06:56:35.292Z,99.99
2018-07-23T06:57:35.208Z,99.99
2018-07-23T06:58:35.154Z,99.99
2018-07-23T06:59:35.038Z,99.99
2018-07-23T07:00:34.971Z,99.99
2018-07-23T07:01:34.867Z,99.99
2018-07-23T07:02:34.784Z,99.60
2018-07-23T07:03:34.740Z,99.84
2018-07-23T07:04:34.620Z,99.36
2018-07-23T07:05:34.531Z,97.91
2018-07-23T07:06:34.446Z,97.38
2018-07-23T07:07:34.363Z,97.18
2018-07-23T07:08:34.675Z,99.26
2018-07-23T07:09:34.225Z,98.88
2018-07-23T07:10:34.117Z,99.99
2018-07-23T07:11:34.031Z,98.97
2018-07-23T07:12:33.950Z,98.88
2018-07-23T07:13:33.911Z,98.35
2018-07-23T07:14:33.816Z,97.47
2018-07-23T07:15:33.791Z,97.28
2018-07-23T07:16:33.622Z,96.26
2018-07-23T07:17:33.535Z,96.36
2018-07-23T07:18:33.459Z,93.79
2018-07-23T07:19:33.405Z,93.12
2018-07-23T07:20:33.294Z,93.07
2018-07-23T07:21:33.209Z,93.07
2018-07-23T07:22:33.227Z,92.15
2018-07-23T07:23:33.047Z,94.57
2018-07-23T07:24:32.998Z,94.57
2018-07-23T07:25:32.905Z,93.36
2018-07-23T07:26:32.803Z,93.99
2018-07-23T07:27:32.723Z,93.21
2018-07-23T07:28:32.642Z,92.73
2018-07-23T07:29:32.687Z,90.50
2018-07-23T07:30:32.481Z,89.92
2018-07-23T07:31:32.412Z,89.87
2018-07-23T07:32:32.319Z,89.14
2018-07-23T07:33:32.239Z,87.10
2018-07-23T07:34:32.188Z,87.82
2018-07-23T07:35:32.083Z,88.21
2018-07-23T07:36:32.093Z,85.99
2018-07-23T07:37:31.915Z,87.34
2018-07-23T07:38:31.836Z,86.71
2018-07-23T07:39:31.786Z,84.28
2018-07-23T07:40:31.679Z,85.83
2018-07-23T07:41:31.596Z,84.71
2018-07-23T07:42:31.518Z,83.60
2018-07-23T07:43:31.533Z,83.25
2018-07-23T07:44:31.386Z,82.87
2018-07-23T07:45:31.275Z,83.59
2018-07-23T07:46:31.263Z,81.39
2018-07-23T07:47:31.120Z,81.98
2018-07-23T07:48:31.039Z,81.39
2018-07-23T07:49:30.992Z,82.46
2018-07-23T07:50:30.987Z,81.39
2018-07-23T07:51:30.804Z,80.32
2018-07-23T07:52:30.721Z,79.30
2018-07-23T07:53:30.643Z,78.87
2018-07-23T07:54:30.594Z,78.91
2018-07-23T07:55:30.487Z,79.02
2018-07-23T07:56:30.407Z,80.09
2018-07-23T07:57:30.332Z,79.22
2018-07-23T07:58:30.251Z,79.99
2018-07-23T07:59:30.205Z,80.48
2018-07-23T08:00:30.097Z,80.25
2018-07-23T08:01:30.017Z,78.83
2018-07-23T08:02:29.936Z,78.79
2018-07-23T08:03:29.861Z,80.50
2018-07-23T08:04:29.809Z,80.69
2018-07-23T08:05:29.700Z,80.98
2018-07-23T08:06:29.624Z,81.27
2018-07-23T08:07:29.546Z,80.26
2018-07-23T08:08:29.468Z,80.75
2018-07-23T08:09:29.417Z,80.46
2018-07-23T08:10:29.310Z,80.63
2018-07-23T08:11:29.325Z,79.80
2018-07-23T08:12:29.156Z,80.19
2018-07-23T08:13:29.074Z,79.02
2018-07-23T08:14:29.025Z,78.87
2018-07-23T08:15:28.917Z,79.97
2018-07-23T08:16:28.839Z,80.62
2018-07-23T08:17:28.760Z,81.84
2018-07-23T08:18:28.680Z,82.03
2018-07-23T08:19:28.632Z,82.95
2018-07-23T08:20:28.525Z,82.46
2018-07-23T08:21:28.444Z,82.13
2018-07-23T08:22:28.366Z,81.10
2018-07-23T08:23:28.288Z,81.45
2018-07-23T08:24:28.238Z,78.58
2018-07-23T08:25:28.137Z,78.23
2018-07-23T08:26:28.055Z,77.78
2018-07-23T08:27:27.974Z,76.75
2018-07-23T08:28:27.896Z,78.30
2018-07-23T08:29:27.848Z,76.30
2018-07-23T08:30:27.738Z,76.34
2018-07-23T08:31:27.658Z,76.78
2018-07-23T08:32:27.659Z,78.50
2018-07-23T08:33:27.503Z,78.07
2018-07-23T08:34:27.432Z,78.23
2018-07-23T08:35:27.377Z,80.52
2018-07-23T08:36:27.273Z,79.80
2018-07-23T08:37:27.192Z,80.09
2018-07-23T08:38:27.167Z,81.26
2018-07-23T08:39:27.066Z,81.55
2018-07-23T08:40:26.956Z,83.88
2018-07-23T08:41:26.880Z,83.00
2018-07-23T08:42:26.803Z,83.74
2018-07-23T08:43:26.724Z,84.61
2018-07-23T08:44:26.649Z,82.57
2018-07-23T08:45:26.602Z,84.91
2018-07-23T08:46:26.486Z,85.29
2018-07-23T08:47:26.406Z,85.35
2018-07-23T08:48:26.367Z,82.82
2018-07-23T08:49:26.253Z,81.85
2018-07-23T08:50:26.200Z,82.15
2018-07-23T08:51:26.138Z,83.02
2018-07-23T08:52:26.017Z,83.35
2018-07-23T08:53:25.946Z,83.80
2018-07-23T08:54:25.860Z,83.99
2018-07-23T08:55:25.812Z,85.06
2018-07-23T08:56:25.699Z,83.80
2018-07-23T08:57:25.698Z,83.70
2018-07-23T08:58:25.544Z,81.66
2018-07-23T08:59:25.468Z,80.83
2018-07-23T09:00:25.417Z,80.54
2018-07-23T09:01:25.305Z,81.39
2018-07-23T09:02:25.263Z,77.31
2018-07-23T09:03:25.155Z,75.70
2018-07-23T09:04:25.068Z,75.02
2018-07-23T09:05:25.017Z,73.56
2018-07-23T09:06:24.909Z,75.41
2018-07-23T09:07:24.831Z,74.08
2018-07-23T09:08:24.814Z,74.12
2018-07-23T09:09:24.669Z,74.57
2018-07-23T09:10:24.624Z,75.87
2018-07-23T09:11:24.512Z,72.80
2018-07-23T09:12:24.435Z,71.72
2018-07-23T09:13:24.357Z,70.88
2018-07-23T09:14:24.281Z,71.11
2018-07-23T09:15:24.228Z,73.02
2018-07-23T09:16:24.121Z,73.18
2018-07-23T09:17:24.041Z,72.73
2018-07-23T09:18:23.962Z,72.12
2018-07-23T09:19:23.885Z,69.43
2018-07-23T09:20:23.926Z,69.53
2018-07-23T09:21:23.726Z,68.35
2018-07-23T09:22:23.648Z,67.41
2018-07-23T09:23:23.570Z,68.13
2018-07-23T09:24:23.493Z,69.78
2018-07-23T09:25:23.447Z,68.90
2018-07-23T09:26:23.339Z,68.35
2018-07-23T09:27:23.260Z,67.25
2018-07-23T09:28:23.182Z,67.83
2018-07-23T09:29:23.105Z,68.52
2018-07-23T09:30:23.056Z,67.57
2018-07-23T09:31:22.948Z,68.26
2018-07-23T09:32:22.873Z,68.45
2018-07-23T09:33:22.794Z,67.47
2018-07-23T09:34:22.812Z,68.77
2018-07-23T09:35:22.672Z,64.32
2018-07-23T09:36:22.564Z,65.92
2018-07-23T09:37:22.487Z,64.36
2018-07-23T09:38:22.422Z,64.32
2018-07-23T09:39:22.336Z,63.34
2018-07-23T09:40:22.287Z,62.47
2018-07-23T09:41:22.272Z,61.23
2018-07-23T09:42:22.103Z,62.79
2018-07-23T09:43:22.025Z,63.48
2018-07-23T09:44:21.952Z,63.51
2018-07-23T09:45:21.905Z,65.50
2018-07-23T09:46:21.799Z,66.63
2018-07-23T09:47:21.720Z,67.11
2018-07-23T09:48:21.738Z,69.96
2018-07-23T09:49:21.576Z,73.14
2018-07-23T09:50:21.521Z,73.62
2018-07-23T09:51:21.415Z,73.75
2018-07-23T09:52:21.337Z,70.58
2018-07-23T09:53:21.258Z,68.90
2018-07-23T09:54:21.187Z,66.99
2018-07-23T09:55:21.232Z,67.90
2018-07-23T09:56:21.029Z,65.46
2018-07-23T09:57:20.951Z,64.52
2018-07-23T09:58:20.875Z,64.58
2018-07-23T09:59:20.798Z,63.64
2018-07-23T10:00:20.753Z,62.08
2018-07-23T10:01:20.640Z,62.08
2018-07-23T10:02:20.676Z,63.60
2018-07-23T10:03:20.526Z,64.00
2018-07-23T10:04:20.413Z,64.75
2018-07-23T10:05:20.368Z,66.76
2018-07-23T10:06:20.260Z,66.89
2018-07-23T10:07:20.185Z,66.66
2018-07-23T10:08:20.105Z,68.19
2018-07-23T10:09:20.121Z,69.13
2018-07-23T10:10:19.954Z,69.07
2018-07-23T10:11:19.903Z,68.19
2018-07-23T10:12:19.796Z,67.32
2018-07-23T10:13:19.722Z,69.36
2018-07-23T10:14:19.655Z,66.08
2018-07-23T10:15:19.568Z,63.80
2018-07-23T10:16:19.612Z,63.70
2018-07-23T10:17:19.409Z,62.44
2018-07-23T10:18:19.335Z,64.00
2018-07-23T10:19:19.255Z,64.94
2018-07-23T10:20:19.185Z,67.32
2018-07-23T10:21:19.137Z,68.80
2018-07-23T10:22:19.075Z,69.39
2018-07-23T10:23:19.044Z,68.67
2018-07-23T10:24:18.871Z,67.25
2018-07-23T10:25:18.794Z,66.69
2018-07-23T10:26:18.747Z,65.56
2018-07-23T10:27:18.641Z,65.78
2018-07-23T10:28:18.563Z,64.13
2018-07-23T10:29:18.486Z,64.78
2018-07-23T10:30:18.407Z,66.96
2018-07-23T10:31:18.365Z,69.48
2018-07-23T10:32:18.253Z,66.50
2018-07-23T10:33:18.174Z,67.50
2018-07-23T10:34:18.099Z,66.11
2018-07-23T10:35:18.023Z,66.60
2018-07-23T10:36:18.068Z,62.37
2018-07-23T10:37:17.868Z,64.42
2018-07-23T10:38:17.787Z,61.49
2018-07-23T10:39:17.710Z,60.52
2018-07-23T10:40:17.638Z,66.11
2018-07-23T10:41:17.586Z,65.98
2018-07-23T10:42:17.478Z,64.62
2018-07-23T10:43:17.404Z,64.87
2018-07-23T10:44:17.326Z,65.69
2018-07-23T10:45:17.247Z,67.54
2018-07-23T10:46:17.198Z,69.35
2018-07-23T10:47:17.094Z,70.72
2018-07-23T10:48:17.017Z,67.77
2018-07-23T10:49:16.941Z,66.56
2018-07-23T10:50:16.861Z,66.86
2018-07-23T10:51:16.814Z,64.20
2018-07-23T10:52:16.707Z,63.87
2018-07-23T10:53:16.631Z,63.87
2018-07-23T10:54:16.551Z,62.92
2018-07-23T10:55:16.477Z,62.82
2018-07-23T10:56:16.428Z,61.27
2018-07-23T10:57:16.327Z,60.91
2018-07-23T10:58:16.244Z,60.29
2018-07-23T10:59:16.165Z,60.39
2018-07-23T11:00:16.090Z,59.77
2018-07-23T11:01:16.044Z,62.08
2018-07-23T11:02:15.939Z,64.07
2018-07-23T11:03:15.877Z,63.02
2018-07-23T11:04:15.823Z,60.94
2018-07-23T11:05:15.701Z,60.29
2018-07-23T11:06:15.654Z,59.90
2018-07-23T11:07:15.586Z,59.28
2018-07-23T11:08:15.472Z,59.86
2018-07-23T11:09:15.391Z,56.15
2018-07-23T11:10:15.313Z,58.98
2018-07-23T11:11:15.270Z,60.42
2018-07-23T11:12:15.162Z,60.45
2018-07-23T11:13:15.085Z,57.95
2018-07-23T11:14:15.009Z,59.90
2018-07-23T11:15:14.931Z,61.14
2018-07-23T11:16:14.887Z,61.66
2018-07-23T11:17:14.777Z,61.49
2018-07-23T11:18:14.702Z,60.91
2018-07-23T11:19:14.686Z,60.39
2018-07-23T11:20:14.549Z,61.85
2018-07-23T11:21:14.499Z,59.61
2018-07-23T11:22:14.393Z,61.99
2018-07-23T11:23:14.317Z,59.87
2018-07-23T11:24:14.243Z,59.12
2018-07-23T11:25:38.502Z,58.11
2018-07-23T11:26:14.169Z,58.98
2018-07-23T11:27:14.012Z,56.10
2018-07-23T11:28:13.936Z,58.36
2018-07-23T11:29:13.857Z,57.18
2018-07-23T11:30:13.784Z,55.45
2018-07-23T11:31:13.734Z,57.09
2018-07-23T11:32:13.627Z,54.71
2018-07-23T11:33:13.552Z,56.56
2018-07-23T11:34:13.478Z,59.77
2018-07-23T11:35:13.400Z,59.84
2018-07-23T11:36:13.355Z,58.22
2018-07-23T11:37:13.247Z,57.24
2018-07-23T11:38:13.171Z,55.80
2018-07-23T11:39:13.093Z,55.08
2018-07-23T11:40:13.018Z,56.25
2018-07-23T11:41:12.945Z,54.71
2018-07-23T11:42:12.897Z,53.81
2018-07-23T11:43:12.791Z,54.71
2018-07-23T11:44:12.715Z,55.13
2018-07-23T11:45:12.668Z,54.08
2018-07-23T11:46:24.447Z,54.99
2018-07-23T11:47:12.557Z,55.00
2018-07-23T11:48:12.413Z,57.59
2018-07-23T11:49:12.334Z,58.14
2018-07-23T11:50:12.258Z,59.19
2018-07-23T11:51:12.185Z,57.00
2018-07-23T11:52:14.357Z,57.29
2018-07-23T11:53:12.026Z,56.45
2018-07-23T11:54:11.952Z,58.42
2018-07-23T11:55:11.879Z,55.26
2018-07-23T11:56:11.803Z,54.38
2018-07-23T11:57:11.756Z,54.86
2018-07-23T11:58:11.649Z,54.77
2018-07-23T11:59:11.575Z,55.45
2018-07-23T12:00:11.593Z,54.30
2018-07-23T12:01:11.423Z,54.44
2018-07-23T12:02:11.377Z,54.15
2018-07-23T12:03:11.270Z,53.27
2018-07-23T12:04:11.219Z,52.98
2018-07-23T12:05:11.118Z,55.96
2018-07-23T12:06:11.045Z,56.29
2018-07-23T12:07:11.091Z,59.19
2018-07-23T12:08:10.892Z,60.00
2018-07-23T12:09:10.813Z,61.73
2018-07-23T12:10:10.744Z,61.83
2018-07-23T12:11:10.663Z,62.87
2018-07-23T12:12:10.617Z,61.38
2018-07-23T12:13:10.511Z,61.54
2018-07-23T12:14:10.525Z,63.84
2018-07-23T12:15:10.356Z,63.84
2018-07-23T12:16:10.283Z,64.72
2018-07-23T12:17:10.286Z,63.78
2018-07-23T12:18:10.127Z,62.29
2018-07-23T12:19:10.048Z,61.18
2018-07-23T12:20:09.971Z,59.55
2018-07-23T12:21:09.996Z,59.22
2018-07-23T12:22:09.846Z,57.14
2018-07-23T12:23:09.738Z,57.99
2018-07-23T12:24:09.662Z,57.96
2018-07-23T12:25:09.581Z,58.15
2018-07-23T12:26:09.558Z,56.16
2018-07-23T12:27:09.456Z,57.73
2018-07-23T12:28:09.439Z,55.65
2018-07-23T12:29:09.272Z,54.41
2018-07-23T12:30:09.195Z,55.54
2018-07-23T12:31:09.115Z,54.69
2018-07-23T12:32:09.067Z,52.86
2018-07-23T12:33:08.963Z,50.63
2018-07-23T12:34:08.883Z,51.42
2018-07-23T12:35:08.903Z,51.83
2018-07-23T12:36:08.733Z,51.68
2018-07-23T12:37:08.685Z,54.17
2018-07-23T12:38:08.575Z,56.62
2018-07-23T12:39:08.499Z,58.91
2018-07-23T12:40:08.422Z,60.92
2018-07-23T12:41:08.344Z,61.77
2018-07-23T12:42:08.391Z,63.10
2018-07-23T12:43:08.194Z,62.71
2018-07-23T12:44:08.115Z,64.14
2018-07-23T12:45:08.032Z,63.81
2018-07-23T12:46:07.957Z,65.43
2018-07-23T12:47:07.953Z,65.08
2018-07-23T12:48:07.800Z,63.68
2018-07-23T12:49:07.817Z,62.87
2018-07-23T12:50:07.641Z,60.63
2018-07-23T12:51:07.567Z,60.34